sensor_id;sensor_type;location;lat;lon;timestamp;P1;durP1;ratioP1;P2;durP2;ratioP2
83194;SDS011;73090;49.282;11.402;2024-03-22T00:08:56;12.05;;;6.95;;
83194;SDS011;73090;49.282;11.402;2024-03-22T00:28:57;8.50;;;5.60;;
83194;SDS011;73090;49.282;11.402;2024-03-22T00:48:58;7.70;;;4.47;;
83194;SDS011;73090;49.282;11.402;2024-03-22T01:08:59;9.55;;;6.07;;
83194;SDS011;73090;49.282;11.402;2024-03-22T01:28:59;13.45;;;7.18;;
83194;SDS011;73090;49.282;11.402;2024-03-22T01:49:00;12.07;;;5.95;;
83194;SDS011;73090;49.282;11.402;2024-03-22T02:09:01;21.33;;;8.93;;
83194;SDS011;73090;49.282;11.402;2024-03-22T02:29:04;14.20;;;8.38;;
83194;SDS011;73090;49.282;11.402;2024-03-22T02:49:05;15.27;;;8.57;;
83194;SDS011;73090;49.282;11.402;2024-03-22T03:09:06;22.67;;;10.75;;
83194;SDS011;73090;49.282;11.402;2024-03-22T03:29:08;21.05;;;9.50;;
83194;SDS011;73090;49.282;11.402;2024-03-22T03:49:09;21.95;;;11.25;;
83194;SDS011;73090;49.282;11.402;2024-03-22T04:09:10;17.88;;;10.63;;
83194;SDS011;73090;49.282;11.402;2024-03-22T04:29:11;14.60;;;8.88;;
83194;SDS011;73090;49.282;11.402;2024-03-22T04:49:11;16.58;;;8.98;;
83194;SDS011;73090;49.282;11.402;2024-03-22T05:09:12;25.20;;;10.35;;
83194;SDS011;73090;49.282;11.402;2024-03-22T05:29:13;28.33;;;11.82;;
83194;SDS011;73090;49.282;11.402;2024-03-22T05:49:15;19.33;;;10.68;;
83194;SDS011;73090;49.282;11.402;2024-03-22T06:09:16;18.25;;;9.35;;
83194;SDS011;73090;49.282;11.402;2024-03-22T06:29:24;24.27;;;12.15;;
83194;SDS011;73090;49.282;11.402;2024-03-22T06:49:24;21.35;;;11.80;;
83194;SDS011;73090;49.282;11.402;2024-03-22T07:09:25;19.80;;;10.38;;
83194;SDS011;73090;49.282;11.402;2024-03-22T07:29:28;20.23;;;12.23;;
83194;SDS011;73090;49.282;11.402;2024-03-22T07:49:29;17.80;;;10.70;;
83194;SDS011;73090;49.282;11.402;2024-03-22T08:09:31;17.67;;;10.40;;
83194;SDS011;73090;49.282;11.402;2024-03-22T08:29:32;17.58;;;10.55;;
83194;SDS011;73090;49.282;11.402;2024-03-22T08:49:33;19.35;;;9.85;;
83194;SDS011;73090;49.282;11.402;2024-03-22T09:09:33;17.33;;;10.30;;
83194;SDS011;73090;49.282;11.402;2024-03-22T09:29:34;14.85;;;9.30;;
83194;SDS011;73090;49.282;11.402;2024-03-22T09:49:35;16.35;;;8.82;;
83194;SDS011;73090;49.282;11.402;2024-03-22T10:09:36;15.18;;;10.38;;
83194;SDS011;73090;49.282;11.402;2024-03-22T10:29:37;13.85;;;8.13;;
83194;SDS011;73090;49.282;11.402;2024-03-22T10:49:38;11.88;;;5.45;;
83194;SDS011;73090;49.282;11.402;2024-03-22T11:09:39;8.27;;;6.78;;
83194;SDS011;73090;49.282;11.402;2024-03-22T11:29:40;13.07;;;8.07;;
83194;SDS011;73090;49.282;11.402;2024-03-22T11:49:41;7.72;;;6.43;;
83194;SDS011;73090;49.282;11.402;2024-03-22T12:09:43;9.48;;;6.18;;
83194;SDS011;73090;49.282;11.402;2024-03-22T12:29:44;11.40;;;6.60;;
83194;SDS011;73090;49.282;11.402;2024-03-22T12:49:46;7.90;;;5.97;;
83194;SDS011;73090;49.282;11.402;2024-03-22T13:09:47;9.60;;;6.13;;
83194;SDS011;73090;49.282;11.402;2024-03-22T13:29:47;9.30;;;6.82;;
83194;SDS011;73090;49.282;11.402;2024-03-22T13:49:48;4.22;;;3.75;;
83194;SDS011;73090;49.282;11.402;2024-03-22T14:09:48;5.20;;;3.58;;
83194;SDS011;73090;49.282;11.402;2024-03-22T14:29:49;6.63;;;4.28;;
83194;SDS011;73090;49.282;11.402;2024-03-22T14:49:50;6.47;;;5.43;;
83194;SDS011;73090;49.282;11.402;2024-03-22T15:09:51;6.10;;;5.13;;
83194;SDS011;73090;49.282;11.402;2024-03-22T15:29:52;8.10;;;4.88;;
83194;SDS011;73090;49.282;11.402;2024-03-22T15:49:53;7.18;;;4.00;;
83194;SDS011;73090;49.282;11.402;2024-03-22T16:09:53;4.72;;;3.10;;
83194;SDS011;73090;49.282;11.402;2024-03-22T16:29:54;4.35;;;3.65;;
83194;SDS011;73090;49.282;11.402;2024-03-22T16:49:55;4.97;;;2.25;;
83194;SDS011;73090;49.282;11.402;2024-03-22T17:09:56;5.00;;;4.60;;
83194;SDS011;73090;49.282;11.402;2024-03-22T17:29:56;4.75;;;3.58;;
83194;SDS011;73090;49.282;11.402;2024-03-22T17:49:57;3.55;;;3.25;;
83194;SDS011;73090;49.282;11.402;2024-03-22T18:09:59;5.82;;;4.43;;
83194;SDS011;73090;49.282;11.402;2024-03-22T18:30:00;4.25;;;3.85;;
83194;SDS011;73090;49.282;11.402;2024-03-22T18:50:01;4.50;;;3.70;;
83194;SDS011;73090;49.282;11.402;2024-03-22T19:10:01;6.93;;;6.22;;
83194;SDS011;73090;49.282;11.402;2024-03-22T19:30:02;5.63;;;4.53;;
83194;SDS011;73090;49.282;11.402;2024-03-22T19:50:03;6.75;;;4.50;;
83194;SDS011;73090;49.282;11.402;2024-03-22T20:10:04;5.38;;;4.88;;
83194;SDS011;73090;49.282;11.402;2024-03-22T20:30:06;6.60;;;3.85;;
